Siping, China
Current Conditions -  °F | °C
As of 2:00 PM on Wednesday 28 Jan 2015 (Local Time) from ZYCC Reporting Station
Haze Haze  
Wind Chill:   Ceiling: Unl
Heat Index: 10°   Visibility: 3mi
Dew Point: -4°   Wind: 7mph
Humidity: 52%   Direction: 150°SSE
Pressure: 30.5"   Gusts: NA
Location:  43.17°N, 124.33°E
Report Text: ZYCC 280600Z 15003MPS 5000 BR NSC M12/M20 Q1033 NOSIG
Loading
Personal Weather Stations






























Interactive Weather Map New forecast layout! Learn more

10-Day Weather Forecast

Advertisements
Track Severe Weather on mobile